createdAt,value
2018-06-11T00:01:56.375Z,3.60
2018-06-11T00:04:24.876Z,3.60
2018-06-11T00:06:53.391Z,3.83
2018-06-11T00:09:22.070Z,4.07
2018-06-11T00:11:50.578Z,3.97
2018-06-11T00:14:19.540Z,3.63
2018-06-11T00:19:41.041Z,3.70
2018-06-11T00:22:09.542Z,3.50
2018-06-11T00:24:38.012Z,3.47
2018-06-11T00:27:06.579Z,3.33
2018-06-11T00:29:35.090Z,3.30
2018-06-11T00:32:03.683Z,3.40
2018-06-11T00:34:32.154Z,3.40
2018-06-11T00:37:00.679Z,3.50
2018-06-11T00:39:29.151Z,3.87
2018-06-11T00:41:57.667Z,3.40
2018-06-11T00:44:26.159Z,3.63
2018-06-11T00:46:54.724Z,3.37
2018-06-11T00:49:23.280Z,3.40
2018-06-11T00:51:52.283Z,3.23
2018-06-11T00:54:21.233Z,3.43
2018-06-11T00:56:49.779Z,3.73
2018-06-11T00:59:18.261Z,3.60
2018-06-11T01:01:46.769Z,3.40
2018-06-11T01:04:15.338Z,3.40
2018-06-11T01:06:43.993Z,3.40
2018-06-11T01:09:12.538Z,3.47
2018-06-11T01:11:41.164Z,3.57
2018-06-11T01:14:09.655Z,3.40
2018-06-11T01:16:38.124Z,3.53
2018-06-11T01:19:06.289Z,3.00
2018-06-11T01:21:34.771Z,3.50
2018-06-11T01:24:03.471Z,3.47
2018-06-11T01:26:32.007Z,3.40
2018-06-11T01:29:00.510Z,3.93
2018-06-11T01:31:29.079Z,3.53
2018-06-11T01:33:57.658Z,3.20
2018-06-11T01:36:26.401Z,3.20
2018-06-11T01:38:54.895Z,3.10
2018-06-11T01:41:23.460Z,3.00
2018-06-11T01:43:51.958Z,3.20
2018-06-11T01:46:43.324Z,3.17
2018-06-11T01:49:11.894Z,3.23
2018-06-11T01:51:40.463Z,2.80
2018-06-11T01:54:09.004Z,2.77
2018-06-11T01:56:37.524Z,3.00
2018-06-11T01:59:06.035Z,2.80
2018-06-11T02:01:34.522Z,3.07
2018-06-11T02:04:03.040Z,2.87
2018-06-11T02:06:31.655Z,2.80
2018-06-11T02:09:00.124Z,3.00
2018-06-11T02:11:28.756Z,3.10
2018-06-11T02:13:57.346Z,2.73
2018-06-11T02:16:35.367Z,3.53
2018-06-11T02:19:03.882Z,3.23
2018-06-11T02:21:32.471Z,3.80
2018-06-11T02:24:01.054Z,2.70
2018-06-11T02:29:16.377Z,3.13
2018-06-11T02:31:44.836Z,2.70
2018-06-11T02:34:13.358Z,3.00
2018-06-11T02:36:41.920Z,3.00
2018-06-11T02:39:10.530Z,3.00
2018-06-11T02:41:39.129Z,3.13
2018-06-11T02:44:07.623Z,2.90
2018-06-11T02:46:36.131Z,2.90
2018-06-11T02:49:04.748Z,3.00
2018-06-11T02:51:33.429Z,3.23
2018-06-11T02:54:02.005Z,2.90
2018-06-11T02:56:30.523Z,3.17
2018-06-11T02:58:59.118Z,2.70
2018-06-11T03:01:27.574Z,2.90
2018-06-11T03:03:56.070Z,3.17
2018-06-11T03:06:24.888Z,3.10
2018-06-11T03:08:53.388Z,3.10
2018-06-11T03:11:21.874Z,3.30
2018-06-11T03:13:50.438Z,2.90
2018-06-11T03:16:19.226Z,3.20
2018-06-11T03:18:47.381Z,3.00
2018-06-11T03:21:15.986Z,2.90
2018-06-11T03:23:44.549Z,3.00
2018-06-11T03:26:13.034Z,2.90
2018-06-11T03:28:41.578Z,2.97
2018-06-11T03:31:10.143Z,3.00
2018-06-11T03:33:38.654Z,3.67
2018-06-11T03:36:07.151Z,3.70
2018-06-11T03:38:35.703Z,3.57
2018-06-11T03:41:04.282Z,2.97
2018-06-11T03:43:32.787Z,2.87
2018-06-11T03:46:01.344Z,3.10
2018-06-11T03:48:29.849Z,2.70
2018-06-11T03:50:58.398Z,3.80
2018-06-11T03:53:27.069Z,3.87
2018-06-11T03:55:55.539Z,3.70
2018-06-11T03:58:24.051Z,3.60
2018-06-11T04:00:52.530Z,4.03
2018-06-11T04:03:21.023Z,3.30
2018-06-11T04:05:49.546Z,3.80
2018-06-11T04:08:17.729Z,3.53
2018-06-11T04:10:46.314Z,3.70
2018-06-11T04:13:14.751Z,3.57
2018-06-11T04:15:43.264Z,3.70
2018-06-11T04:18:12.107Z,3.47
2018-06-11T04:20:40.626Z,3.63
2018-06-11T04:23:09.218Z,3.43
2018-06-11T04:25:37.801Z,3.87
2018-06-11T04:28:06.371Z,4.10
2018-06-11T04:30:34.570Z,3.73
2018-06-11T04:33:03.032Z,3.87
2018-06-11T04:35:31.595Z,4.10
2018-06-11T04:38:00.015Z,3.70
2018-06-11T04:40:28.509Z,3.63
2018-06-11T04:42:57.028Z,3.90
2018-06-11T04:45:25.530Z,4.67
2018-06-11T04:47:54.130Z,4.10
2018-06-11T04:50:22.712Z,4.00
2018-06-11T04:52:51.195Z,4.63
2018-06-11T04:55:25.099Z,4.20
2018-06-11T04:57:53.602Z,3.90
2018-06-11T05:00:22.171Z,4.20
2018-06-11T05:02:50.777Z,3.80
2018-06-11T05:05:19.298Z,3.30
2018-06-11T05:07:47.844Z,3.73
2018-06-11T05:10:16.384Z,3.17
2018-06-11T05:12:44.955Z,3.80
2018-06-11T05:15:13.472Z,3.73
2018-06-11T05:17:42.601Z,4.47
2018-06-11T05:20:11.328Z,3.77
2018-06-11T05:22:39.842Z,4.20
2018-06-11T05:25:08.551Z,3.80
2018-06-11T05:27:37.164Z,4.47
2018-06-11T05:30:05.719Z,3.47
2018-06-11T05:32:34.243Z,3.73
2018-06-11T05:35:07.986Z,3.97
2018-06-11T05:37:36.573Z,3.87
2018-06-11T05:40:05.230Z,3.70
2018-06-11T05:42:33.823Z,4.07
2018-06-11T05:45:02.385Z,3.60
2018-06-11T05:47:30.909Z,4.83
2018-06-11T05:49:59.414Z,3.90
2018-06-11T05:52:28.083Z,3.60
2018-06-11T05:54:56.679Z,3.87
2018-06-11T05:57:25.119Z,3.40
2018-06-11T05:59:53.664Z,3.70
2018-06-11T06:02:22.002Z,3.97
2018-06-11T06:04:50.494Z,3.20
2018-06-11T06:07:18.983Z,3.77
2018-06-11T06:09:47.510Z,3.73
2018-06-11T06:12:15.990Z,3.50
2018-06-11T06:14:44.531Z,4.00
2018-06-11T06:17:13.034Z,3.63
2018-06-11T06:19:41.551Z,3.33
2018-06-11T06:22:10.076Z,3.63
2018-06-11T06:24:38.675Z,3.30
2018-06-11T06:27:07.322Z,4.13
2018-06-11T06:29:36.685Z,3.43
2018-06-11T06:32:05.309Z,3.93
2018-06-11T06:34:33.856Z,3.60
2018-06-11T06:37:02.766Z,3.57
2018-06-11T06:39:31.362Z,3.87
2018-06-11T06:41:59.976Z,3.57
2018-06-11T06:44:28.151Z,3.90
2018-06-11T06:46:56.863Z,3.97
2018-06-11T06:49:25.354Z,3.97
2018-06-11T06:51:54.153Z,3.83
2018-06-11T06:54:22.698Z,3.60
2018-06-11T06:56:51.196Z,4.00
2018-06-11T06:59:19.722Z,3.70
2018-06-11T07:01:48.243Z,4.37
2018-06-11T07:04:16.754Z,4.37
2018-06-11T07:06:45.289Z,4.47
2018-06-11T07:09:13.979Z,4.87
2018-06-11T07:11:42.163Z,4.80
2018-06-11T07:14:10.695Z,4.50
2018-06-11T07:16:48.674Z,4.83
2018-06-11T07:19:17.242Z,4.73
2018-06-11T07:21:45.837Z,4.73
2018-06-11T07:24:14.469Z,3.63
2018-06-11T07:26:52.598Z,3.53
2018-06-11T07:29:20.836Z,3.47
2018-06-11T07:31:49.338Z,4.13
2018-06-11T07:34:17.854Z,3.30
2018-06-11T07:36:46.496Z,3.90
2018-06-11T07:39:15.099Z,3.60
2018-06-11T07:41:43.656Z,3.60
2018-06-11T07:44:12.185Z,4.13
2018-06-11T07:46:40.894Z,3.17
2018-06-11T07:49:09.424Z,2.60
2018-06-11T07:51:38.019Z,3.03
2018-06-11T07:54:06.478Z,2.73
2018-06-11T07:56:35.032Z,3.47
2018-06-11T07:59:03.540Z,2.90
2018-06-11T08:01:32.041Z,2.77
2018-06-11T08:04:00.722Z,2.20
2018-06-11T08:06:43.159Z,2.43
2018-06-11T08:09:11.660Z,2.13
2018-06-11T08:11:40.173Z,2.50
2018-06-11T08:14:08.708Z,2.57
2018-06-11T08:16:37.475Z,1.93
2018-06-11T08:19:06.003Z,2.50
2018-06-11T08:21:34.533Z,2.40
2018-06-11T08:24:03.177Z,2.17
2018-06-11T08:26:31.866Z,2.07
2018-06-11T08:29:00.446Z,2.40
2018-06-11T08:31:28.962Z,2.50
2018-06-11T08:33:57.507Z,2.37
2018-06-11T08:36:31.267Z,2.40
2018-06-11T08:38:59.770Z,2.40
2018-06-11T08:41:28.275Z,2.60
2018-06-11T08:43:56.797Z,2.80
2018-06-11T08:46:25.330Z,2.60
2018-06-11T08:48:53.871Z,2.57
2018-06-11T08:51:22.407Z,2.77
2018-06-11T08:53:50.942Z,2.13
2018-06-11T08:56:19.469Z,2.57
2018-06-11T08:58:47.989Z,2.50
2018-06-11T09:01:16.479Z,2.57
2018-06-11T09:03:45.099Z,2.43
2018-06-11T09:06:27.383Z,2.90
2018-06-11T09:08:55.942Z,3.33
2018-06-11T09:11:24.468Z,2.90
2018-06-11T09:13:53.131Z,4.73
2018-06-11T09:16:21.655Z,2.60
2018-06-11T09:18:50.204Z,2.40
2018-06-11T09:21:18.978Z,2.80
2018-06-11T09:23:47.539Z,2.63
2018-06-11T09:26:16.234Z,2.50
2018-06-11T09:28:44.749Z,2.60
2018-06-11T09:31:13.282Z,2.70
2018-06-11T09:33:41.505Z,2.83
2018-06-11T09:36:10.117Z,2.57
2018-06-11T09:38:38.687Z,2.60
2018-06-11T09:41:07.201Z,2.93
2018-06-11T09:43:35.831Z,2.50
2018-06-11T09:46:04.503Z,2.60
2018-06-11T09:48:33.001Z,2.83
2018-06-11T09:51:01.532Z,2.70
2018-06-11T09:53:30.470Z,2.50
2018-06-11T09:55:59.079Z,2.80
2018-06-11T09:58:27.689Z,2.70
2018-06-11T10:00:56.659Z,2.33
2018-06-11T10:03:25.286Z,2.70
2018-06-11T10:05:53.851Z,3.27
2018-06-11T10:08:22.378Z,2.50
2018-06-11T10:10:50.981Z,3.30
2018-06-11T10:13:19.544Z,3.10
2018-06-11T10:15:49.003Z,2.57
2018-06-11T10:18:17.470Z,2.60
2018-06-11T10:20:46.063Z,3.10
2018-06-11T10:23:14.234Z,3.20
2018-06-11T10:25:42.854Z,3.23
2018-06-11T10:28:11.406Z,2.40
2018-06-11T10:30:39.942Z,2.50
2018-06-11T10:33:10.638Z,2.83
2018-06-11T10:35:44.351Z,3.13
2018-06-11T10:38:12.866Z,3.33
2018-06-11T10:40:41.321Z,3.20
2018-06-11T10:43:09.841Z,3.13
2018-06-11T10:45:38.413Z,3.20
2018-06-11T10:48:06.900Z,3.90
2018-06-11T10:50:35.385Z,3.40
2018-06-11T10:53:04.020Z,3.30
2018-06-11T10:55:32.754Z,4.17
2018-06-11T10:58:01.336Z,4.17
2018-06-11T11:00:29.872Z,3.63
2018-06-11T11:02:58.501Z,3.50
2018-06-11T11:08:20.332Z,4.07
2018-06-11T11:10:48.963Z,4.00
2018-06-11T11:13:17.607Z,3.90
2018-06-11T11:15:46.362Z,4.07
2018-06-11T11:18:14.842Z,4.13
2018-06-11T11:20:43.319Z,4.17
2018-06-11T11:23:11.888Z,4.40
2018-06-11T11:31:26.589Z,4.60
2018-06-11T11:33:55.180Z,3.83
2018-06-11T11:36:37.556Z,4.57
2018-06-11T11:39:08.132Z,4.57
2018-06-11T11:41:36.823Z,4.90
2018-06-11T11:44:05.466Z,4.43
2018-06-11T11:46:33.951Z,3.70
2018-06-11T11:49:02.720Z,3.60
2018-06-11T11:51:31.270Z,3.93
2018-06-11T11:53:59.782Z,4.03
2018-06-11T11:56:42.069Z,3.90
2018-06-11T11:59:10.612Z,4.67
2018-06-11T12:01:39.167Z,4.50
2018-06-11T12:04:07.695Z,4.60
2018-06-11T12:06:36.192Z,4.07
2018-06-11T12:09:07.002Z,4.23
2018-06-11T12:11:35.979Z,3.47
2018-06-11T12:14:04.508Z,4.10
2018-06-11T12:16:33.154Z,3.80
2018-06-11T12:19:01.845Z,3.97
2018-06-11T12:21:30.665Z,4.73
2018-06-11T12:23:59.262Z,3.20
2018-06-11T12:26:27.939Z,3.53
2018-06-11T12:28:56.416Z,3.30
2018-06-11T12:31:24.982Z,3.70
2018-06-11T12:33:53.501Z,3.70
2018-06-11T12:36:22.384Z,3.27
2018-06-11T12:38:50.908Z,3.50
2018-06-11T12:41:19.450Z,4.23
2018-06-11T12:43:47.994Z,4.33
2018-06-11T12:46:16.759Z,3.80
2018-06-11T12:48:45.408Z,3.90
2018-06-11T12:51:14.113Z,4.40
2018-06-11T12:53:42.878Z,3.90
2018-06-11T12:56:11.487Z,3.77
2018-06-11T12:58:39.641Z,3.33
2018-06-11T13:01:08.181Z,3.33
2018-06-11T13:03:36.719Z,2.83
2018-06-11T13:06:05.388Z,3.73
2018-06-11T13:08:33.908Z,3.63
2018-06-11T13:11:02.451Z,3.93
2018-06-11T13:13:30.959Z,4.00
2018-06-11T13:15:59.775Z,3.43
2018-06-11T13:18:28.330Z,3.93
2018-06-11T13:20:56.856Z,4.10
2018-06-11T13:23:25.327Z,3.07
2018-06-11T13:25:53.932Z,3.63
2018-06-11T13:28:22.226Z,4.00
2018-06-11T13:30:50.697Z,4.67
2018-06-11T13:33:18.913Z,4.20
2018-06-11T13:35:47.721Z,4.60
2018-06-11T13:38:16.351Z,4.37
2018-06-11T13:40:44.949Z,4.30
2018-06-11T13:43:13.412Z,3.60
2018-06-11T13:45:42.215Z,3.27
2018-06-11T13:48:10.776Z,4.23
2018-06-11T13:50:39.339Z,2.80
2018-06-11T13:53:07.856Z,3.23
2018-06-11T13:55:36.378Z,3.10
2018-06-11T13:58:04.976Z,2.87
2018-06-11T14:00:33.524Z,3.00
2018-06-11T14:03:02.080Z,2.73
2018-06-11T14:05:30.596Z,2.83
2018-06-11T14:07:59.154Z,2.50
2018-06-11T14:10:27.697Z,2.70
2018-06-11T14:12:56.235Z,2.20
2018-06-11T14:15:47.738Z,2.40
2018-06-11T14:18:16.340Z,2.40
2018-06-11T14:20:44.971Z,2.03
2018-06-11T14:23:13.658Z,2.27
2018-06-11T14:25:42.282Z,2.17
2018-06-11T14:28:10.835Z,2.17
2018-06-11T14:30:39.764Z,2.47
2018-06-11T14:33:08.283Z,2.40
2018-06-11T14:35:36.991Z,2.57
2018-06-11T14:38:05.511Z,2.30
2018-06-11T14:40:34.082Z,2.30
2018-06-11T14:43:02.609Z,2.53
2018-06-11T14:45:40.615Z,2.30
2018-06-11T14:48:09.204Z,2.47
2018-06-11T14:50:37.734Z,2.83
2018-06-11T14:53:06.270Z,2.63
2018-06-11T14:55:34.745Z,2.83
2018-06-11T14:58:03.340Z,2.93
2018-06-11T15:00:31.963Z,3.13
2018-06-11T15:03:00.487Z,3.17
2018-06-11T15:05:38.389Z,3.60
2018-06-11T15:08:07.050Z,3.60
2018-06-11T15:10:35.607Z,3.63
2018-06-11T15:13:04.109Z,2.90
2018-06-11T15:18:25.811Z,3.00
2018-06-11T15:20:54.375Z,3.10
2018-06-11T15:23:22.834Z,2.93
2018-06-11T15:25:51.356Z,3.13
2018-06-11T15:28:20.304Z,2.80
2018-06-11T15:30:48.946Z,3.23
2018-06-11T15:33:17.567Z,2.30
2018-06-11T15:35:46.224Z,3.10
2018-06-11T15:38:14.735Z,2.80
2018-06-11T15:40:43.243Z,2.67
2018-06-11T15:43:11.774Z,3.00
2018-06-11T15:45:40.318Z,2.90
2018-06-11T15:48:08.838Z,3.20
2018-06-11T15:50:37.339Z,3.10
2018-06-11T15:53:06.232Z,2.90
2018-06-11T15:55:34.802Z,3.13
2018-06-11T15:58:03.475Z,2.93
2018-06-11T16:00:32.123Z,3.23
2018-06-11T16:03:00.647Z,3.27
2018-06-11T16:05:29.262Z,2.90
2018-06-11T16:07:57.930Z,2.90
2018-06-11T16:10:26.596Z,3.00
2018-06-11T16:12:55.882Z,2.97
2018-06-11T16:15:24.472Z,2.87
2018-06-11T16:17:53.077Z,3.33
2018-06-11T16:20:21.789Z,3.17
2018-06-11T16:22:50.136Z,2.87
2018-06-11T16:25:18.671Z,2.77
2018-06-11T16:27:47.428Z,2.87
2018-06-11T16:30:15.690Z,2.77
2018-06-11T16:32:44.346Z,3.07
2018-06-11T16:35:13.051Z,2.93
2018-06-11T16:37:41.622Z,2.40
2018-06-11T16:40:10.104Z,3.13
2018-06-11T16:42:38.712Z,2.73
2018-06-11T16:45:07.304Z,2.80
2018-06-11T16:47:36.269Z,3.30
2018-06-11T16:50:04.932Z,3.20
2018-06-11T16:52:33.488Z,3.00
2018-06-11T16:55:02.006Z,3.73
2018-06-11T16:57:30.808Z,2.60
2018-06-11T16:59:59.323Z,3.40
2018-06-11T17:02:28.252Z,2.57
2018-06-11T17:04:57.083Z,3.37
2018-06-11T17:07:30.833Z,3.00
2018-06-11T17:09:59.495Z,2.70
2018-06-11T17:12:28.023Z,3.07
2018-06-11T17:14:56.602Z,3.60
2018-06-11T17:17:25.118Z,3.27
2018-06-11T17:19:53.721Z,3.30
2018-06-11T17:22:22.315Z,3.07
2018-06-11T17:24:50.870Z,3.20
2018-06-11T17:27:19.403Z,2.70
2018-06-11T17:29:47.909Z,3.43
2018-06-11T17:32:16.422Z,3.23
2018-06-11T17:34:44.614Z,2.90
2018-06-11T17:37:13.200Z,3.50
2018-06-11T17:39:41.817Z,3.50
2018-06-11T17:42:10.284Z,3.33
2018-06-11T17:44:38.899Z,3.23
2018-06-11T17:47:12.454Z,3.70
2018-06-11T17:49:41.018Z,3.40
2018-06-11T17:52:09.578Z,3.13
2018-06-11T17:54:38.159Z,3.40
2018-06-11T17:57:06.698Z,2.83
2018-06-11T17:59:35.246Z,3.27
2018-06-11T18:02:03.886Z,3.57
2018-06-11T18:04:32.332Z,3.40
2018-06-11T18:07:01.810Z,3.50
2018-06-11T18:09:30.330Z,3.70
2018-06-11T18:11:58.784Z,3.27
2018-06-11T18:14:27.241Z,2.97
2018-06-11T18:16:55.734Z,2.90
2018-06-11T18:19:24.186Z,3.10
2018-06-11T18:21:53.435Z,3.73
2018-06-11T18:24:22.045Z,3.20
2018-06-11T18:26:50.821Z,3.37
2018-06-11T18:29:19.507Z,3.47
2018-06-11T18:31:48.185Z,3.43
2018-06-11T18:34:16.738Z,4.00
2018-06-11T18:36:45.377Z,3.47
2018-06-11T18:39:14.002Z,3.50
2018-06-11T18:41:42.549Z,3.50
2018-06-11T18:44:11.136Z,3.90
2018-06-11T18:46:39.804Z,3.23
2018-06-11T18:49:08.389Z,3.50
2018-06-11T18:51:36.982Z,3.50
2018-06-11T18:54:05.589Z,3.40
2018-06-11T18:56:34.257Z,3.73
2018-06-11T18:59:02.903Z,3.27
2018-06-11T19:01:31.575Z,3.63
2018-06-11T19:04:00.244Z,3.90
2018-06-11T19:06:28.433Z,3.93
2018-06-11T19:08:57.067Z,4.40
2018-06-11T19:11:25.725Z,3.97
2018-06-11T19:13:54.275Z,3.80
2018-06-11T19:16:27.956Z,3.60
2018-06-11T19:18:56.655Z,4.17
2018-06-11T19:21:25.303Z,3.73
2018-06-11T19:23:54.003Z,4.03
2018-06-11T19:26:22.611Z,3.97
2018-06-11T19:28:51.186Z,3.87
2018-06-11T19:31:19.750Z,4.00
2018-06-11T19:33:48.415Z,3.43
2018-06-11T19:36:16.958Z,3.90
2018-06-11T19:38:45.550Z,3.97
2018-06-11T19:41:14.172Z,3.67
2018-06-11T19:43:42.722Z,3.70
2018-06-11T19:46:11.492Z,3.83
2018-06-11T19:48:40.066Z,3.73
2018-06-11T19:51:08.964Z,3.80
2018-06-11T19:53:37.636Z,4.40
2018-06-11T19:56:06.327Z,3.77
2018-06-11T19:58:34.838Z,4.43
2018-06-11T20:01:03.561Z,4.00
2018-06-11T20:03:32.199Z,4.60
2018-06-11T20:06:00.848Z,3.83
2018-06-11T20:08:29.514Z,3.70
2018-06-11T20:10:58.155Z,3.43
2018-06-11T20:13:26.696Z,3.80
2018-06-11T20:15:55.490Z,3.73
2018-06-11T20:18:24.079Z,4.27
2018-06-11T20:20:52.798Z,4.20
2018-06-11T20:23:21.417Z,3.87
2018-06-11T20:25:49.959Z,4.17
2018-06-11T20:28:18.613Z,3.97
2018-06-11T20:30:47.176Z,3.80
2018-06-11T20:33:15.797Z,3.97
2018-06-11T20:35:44.566Z,4.30
2018-06-11T20:38:13.142Z,3.90
2018-06-11T20:40:41.814Z,3.70
2018-06-11T20:43:10.413Z,4.10
2018-06-11T20:45:39.087Z,4.03
2018-06-11T20:48:07.795Z,4.17
2018-06-11T20:50:36.416Z,11.47
2018-06-11T20:53:05.035Z,3.97
2018-06-11T20:55:33.671Z,4.30
2018-06-11T20:58:03.906Z,4.60
2018-06-11T21:00:33.364Z,4.30
2018-06-11T21:03:02.085Z,4.70
2018-06-11T21:05:30.518Z,4.17
2018-06-11T21:07:59.275Z,4.40
2018-06-11T21:10:28.071Z,4.57
2018-06-11T21:12:57.067Z,4.07
2018-06-11T21:15:25.987Z,4.00
2018-06-11T21:17:55.696Z,4.10
2018-06-11T21:20:24.503Z,4.13
2018-06-11T21:22:53.326Z,3.73
2018-06-11T21:25:22.742Z,4.20
2018-06-11T21:27:52.023Z,4.07
2018-06-11T21:30:20.885Z,4.53
2018-06-11T21:32:49.710Z,3.67
2018-06-11T21:35:19.047Z,3.90
2018-06-11T21:37:47.831Z,3.83
2018-06-11T21:40:16.535Z,3.83
2018-06-11T21:42:45.331Z,4.53
2018-06-11T21:45:14.120Z,4.47
2018-06-11T21:47:42.908Z,4.13
2018-06-11T21:50:12.411Z,4.40
2018-06-11T21:52:41.747Z,4.97
2018-06-11T21:55:10.531Z,4.07
2018-06-11T21:57:39.406Z,4.30
2018-06-11T22:00:08.479Z,4.10
2018-06-11T22:02:37.289Z,3.90
2018-06-11T22:05:06.099Z,4.47
2018-06-11T22:07:34.879Z,3.90
2018-06-11T22:10:03.616Z,4.27
2018-06-11T22:12:32.587Z,4.70
2018-06-11T22:15:01.519Z,4.07
2018-06-11T22:17:30.218Z,3.60
2018-06-11T22:19:59.947Z,3.83
2018-06-11T22:22:29.507Z,4.20
2018-06-11T22:24:58.391Z,3.50
2018-06-11T22:27:36.744Z,3.80
2018-06-11T22:30:05.434Z,3.80
2018-06-11T22:32:35.071Z,4.17
2018-06-11T22:35:03.948Z,3.97
2018-06-11T22:37:32.668Z,3.77
2018-06-11T22:40:01.071Z,4.03
2018-06-11T22:42:29.802Z,3.67
2018-06-11T22:44:58.636Z,3.60
2018-06-11T22:47:28.710Z,3.87
2018-06-11T22:49:58.075Z,3.90
2018-06-11T22:52:26.708Z,4.40
2018-06-11T22:54:55.439Z,3.80
2018-06-11T22:57:24.202Z,3.97
2018-06-11T22:59:53.071Z,4.20
2018-06-11T23:02:23.186Z,3.70
2018-06-11T23:04:51.979Z,3.57
2018-06-11T23:07:20.732Z,3.50
2018-06-11T23:09:50.435Z,3.67
2018-06-11T23:12:20.070Z,3.60
2018-06-11T23:14:49.535Z,3.80
2018-06-11T23:17:18.354Z,3.63
2018-06-11T23:19:46.731Z,4.27
2018-06-11T23:22:15.588Z,4.10
2018-06-11T23:24:44.451Z,3.30
2018-06-11T23:27:13.248Z,3.33
2018-06-11T23:29:42.838Z,3.80
2018-06-11T23:32:12.918Z,3.70
2018-06-11T23:34:42.321Z,3.77
2018-06-11T23:37:11.164Z,3.50
2018-06-11T23:39:40.960Z,3.77
2018-06-11T23:42:09.598Z,3.80
2018-06-11T23:44:38.172Z,3.70
2018-06-11T23:47:06.724Z,4.70
2018-06-11T23:49:35.322Z,3.50
2018-06-11T23:52:04.213Z,4.07
2018-06-11T23:54:32.872Z,3.70
2018-06-11T23:57:01.587Z,3.37
2018-06-11T23:59:30.205Z,4.00
